TUI212 EDDL-LTAI
Flight info
| Callsign | TUI212 |
|---|---|
| Flight time | 3h 13m |
| Altitude | 35000 |
| Route | DODEN7Z/05R DODEN Y853 BOMBI DCT ESATI DCT OSBIT DCT TENLO DCT LAMSI DCT SITNI DCT SASAL DCT BABIT DCT NISVA N131 RODIP DCT BELGI UN131 KOZLU |
| Aircraft | B738/M-SDE2E3FGHIRWXY/LB1 |
Departure
| Time | 2026-05-06 11:32 |
|---|---|
| Airport | Düsseldorf Airport (EDDL) |
Arrival
| Time | 2026-05-06 14:46 |
|---|---|
| Airport | Antalya International Airport (LTAI) |
| Time | Latitude | Longitude | Altitude | Speed | Heading |
|---|---|---|---|---|---|
| 2026-05-06 10:49 | 51.27763 | 6.75713 | 124 ft | 0 kts | 271° |
| 2026-05-06 11:20 | 51.27763 | 6.75740 | 124 ft | 4 kts | 274° |
| 2026-05-06 11:21 | 51.27759 | 6.75782 | 125 ft | 4 kts | 291° |
| 2026-05-06 11:21 | 51.27746 | 6.75810 | 123 ft | 4 kts | 351° |
| 2026-05-06 11:21 | 51.27722 | 6.75811 | 124 ft | 4 kts | 1° |
| 2026-05-06 11:21 | 51.27710 | 6.75810 | 128 ft | 0 kts | 1° |
| 2026-05-06 11:27 | 51.27740 | 6.75811 | 129 ft | 7 kts | 1° |
| 2026-05-06 11:27 | 51.27788 | 6.75813 | 129 ft | 7 kts | 1° |
| 2026-05-06 11:27 | 51.27836 | 6.75814 | 126 ft | 7 kts | 1° |
| 2026-05-06 11:28 | 51.27867 | 6.75815 | 129 ft | 7 kts | 1° |
| 2026-05-06 11:28 | 51.27925 | 6.75816 | 127 ft | 10 kts | 1° |
| 2026-05-06 11:28 | 51.27986 | 6.75782 | 126 ft | 10 kts | 294° |
| 2026-05-06 11:28 | 51.27953 | 6.75655 | 127 ft | 10 kts | 233° |
| 2026-05-06 11:29 | 51.27913 | 6.75572 | 127 ft | 9 kts | 233° |
| 2026-05-06 11:29 | 51.27875 | 6.75490 | 125 ft | 9 kts | 233° |
| 2026-05-06 11:29 | 51.27850 | 6.75435 | 126 ft | 9 kts | 239° |
| 2026-05-06 11:29 | 51.27854 | 6.75344 | 124 ft | 9 kts | 313° |
| 2026-05-06 11:30 | 51.27872 | 6.75325 | 122 ft | 0 kts | 330° |
| 2026-05-06 11:31 | 51.27905 | 6.75295 | 122 ft | 11 kts | 329° |
| 2026-05-06 11:31 | 51.27965 | 6.75253 | 118 ft | 9 kts | 0° |
| 2026-05-06 11:31 | 51.28013 | 6.75310 | 121 ft | 9 kts | 48° |
| 2026-05-06 11:32 | 51.28053 | 6.75392 | 122 ft | 19 kts | 51° |
| 2026-05-06 11:32 | 51.28321 | 6.75934 | 126 ft | 104 kts | 50° |
| 2026-05-06 11:32 | 51.28930 | 6.77117 | 247 ft | 166 kts | 57° |
| 2026-05-06 11:32 | 51.29532 | 6.78649 | 1314 ft | 158 kts | 49° |
| 2026-05-06 11:33 | 51.30255 | 6.80007 | 2403 ft | 157 kts | 49° |
| 2026-05-06 11:33 | 51.30983 | 6.81431 | 3033 ft | 178 kts | 49° |
| 2026-05-06 11:33 | 51.31825 | 6.83124 | 3318 ft | 208 kts | 49° |
| 2026-05-06 11:33 | 51.32784 | 6.84942 | 3706 ft | 225 kts | 49° |
| 2026-05-06 11:34 | 51.33794 | 6.87018 | 4091 ft | 237 kts | 51° |
| 2026-05-06 11:34 | 51.34765 | 6.89042 | 5116 ft | 224 kts | 52° |
| 2026-05-06 11:34 | 51.35662 | 6.91002 | 5884 ft | 221 kts | 62° |
| 2026-05-06 11:34 | 51.36102 | 6.93335 | 6539 ft | 220 kts | 88° |
| 2026-05-06 11:35 | 51.35789 | 6.95783 | 6874 ft | 232 kts | 114° |
| 2026-05-06 11:35 | 51.35275 | 6.98135 | 7779 ft | 221 kts | 109° |
| 2026-05-06 11:35 | 51.34828 | 7.00567 | 8115 ft | 239 kts | 109° |
| 2026-05-06 11:35 | 51.34372 | 7.03248 | 8384 ft | 258 kts | 106° |
| 2026-05-06 11:36 | 51.33939 | 7.06109 | 8814 ft | 271 kts | 104° |
| 2026-05-06 11:36 | 51.33594 | 7.09164 | 9233 ft | 290 kts | 101° |
| 2026-05-06 11:36 | 51.33300 | 7.12397 | 10067 ft | 292 kts | 99° |
| 2026-05-06 11:36 | 51.33013 | 7.15609 | 10923 ft | 296 kts | 101° |
| 2026-05-06 11:37 | 51.32444 | 7.18859 | 11210 ft | 316 kts | 117° |
| 2026-05-06 11:37 | 51.31160 | 7.21865 | 11180 ft | 341 kts | 138° |
| 2026-05-06 11:37 | 51.29344 | 7.24373 | 11882 ft | 342 kts | 143° |
| 2026-05-06 11:37 | 51.27508 | 7.26829 | 12651 ft | 350 kts | 142° |
| 2026-05-06 11:38 | 51.25643 | 7.29418 | 12908 ft | 369 kts | 140° |
| 2026-05-06 11:38 | 51.23700 | 7.32267 | 13138 ft | 388 kts | 139° |
| 2026-05-06 11:38 | 51.21720 | 7.35313 | 13522 ft | 401 kts | 138° |
| 2026-05-06 11:38 | 51.19726 | 7.38434 | 14234 ft | 400 kts | 137° |
| 2026-05-06 11:39 | 51.17769 | 7.41531 | 15231 ft | 394 kts | 137° |
| 2026-05-06 11:39 | 51.15848 | 7.44644 | 15991 ft | 395 kts | 138° |
| 2026-05-06 11:39 | 51.13830 | 7.47728 | 16263 ft | 408 kts | 139° |
| 2026-05-06 11:39 | 51.11727 | 7.50852 | 16714 ft | 415 kts | 140° |
| 2026-05-06 11:40 | 51.09638 | 7.53958 | 17339 ft | 417 kts | 140° |
| 2026-05-06 11:40 | 51.07517 | 7.57111 | 18056 ft | 417 kts | 140° |
| 2026-05-06 11:40 | 51.05393 | 7.60266 | 18638 ft | 419 kts | 140° |
| 2026-05-06 11:40 | 51.03258 | 7.63443 | 19158 ft | 422 kts | 139° |
| 2026-05-06 11:41 | 51.01114 | 7.66661 | 19596 ft | 427 kts | 139° |
| 2026-05-06 11:41 | 50.98944 | 7.69937 | 19988 ft | 434 kts | 139° |
| 2026-05-06 11:41 | 50.96743 | 7.73267 | 20391 ft | 439 kts | 138° |
| 2026-05-06 11:41 | 50.94527 | 7.76623 | 20880 ft | 441 kts | 138° |
| 2026-05-06 11:42 | 50.92309 | 7.79997 | 21423 ft | 442 kts | 138° |
| 2026-05-06 11:42 | 50.89853 | 7.82872 | 21882 ft | 441 kts | 155° |
| 2026-05-06 11:42 | 50.87023 | 7.84756 | 22366 ft | 441 kts | 159° |
| 2026-05-06 11:42 | 50.84180 | 7.86660 | 22755 ft | 446 kts | 156° |
| 2026-05-06 11:43 | 50.81420 | 7.88824 | 23131 ft | 450 kts | 153° |
| 2026-05-06 11:43 | 50.78681 | 7.91257 | 23505 ft | 453 kts | 150° |
| 2026-05-06 11:43 | 50.77901 | 7.91989 | 23614 ft | 454 kts | 150° |
| 2026-05-06 11:44 | 50.75905 | 7.93919 | 23893 ft | 455 kts | 149° |
| 2026-05-06 11:44 | 50.73216 | 7.96576 | 24257 ft | 457 kts | 149° |
| 2026-05-06 11:45 | 50.70517 | 7.99245 | 24628 ft | 458 kts | 150° |
| 2026-05-06 11:45 | 50.67805 | 8.01909 | 24997 ft | 459 kts | 151° |
| 2026-05-06 11:45 | 50.65085 | 8.04562 | 25311 ft | 461 kts | 151° |
| 2026-05-06 11:45 | 50.62341 | 8.07225 | 25605 ft | 464 kts | 151° |
| 2026-05-06 11:46 | 50.59596 | 8.09931 | 25910 ft | 467 kts | 148° |
| 2026-05-06 11:46 | 50.56986 | 8.13008 | 26226 ft | 470 kts | 144° |
| 2026-05-06 11:46 | 50.54517 | 8.16274 | 26643 ft | 470 kts | 142° |
| 2026-05-06 11:46 | 50.52029 | 8.19693 | 27125 ft | 468 kts | 142° |
| 2026-05-06 11:47 | 50.49581 | 8.23059 | 27613 ft | 466 kts | 142° |
| 2026-05-06 11:47 | 50.47157 | 8.26340 | 28037 ft | 465 kts | 143° |
| 2026-05-06 11:47 | 50.44692 | 8.29622 | 28439 ft | 464 kts | 143° |
| 2026-05-06 11:47 | 50.42216 | 8.32877 | 28882 ft | 463 kts | 143° |
| 2026-05-06 11:48 | 50.39744 | 8.36102 | 29328 ft | 461 kts | 144° |
| 2026-05-06 11:48 | 50.37280 | 8.39304 | 29808 ft | 460 kts | 144° |
| 2026-05-06 11:48 | 50.34814 | 8.42503 | 30186 ft | 459 kts | 144° |
| 2026-05-06 11:48 | 50.32356 | 8.45688 | 30602 ft | 457 kts | 144° |
| 2026-05-06 11:49 | 50.29915 | 8.48849 | 31079 ft | 453 kts | 144° |
| 2026-05-06 11:49 | 50.27492 | 8.51985 | 31453 ft | 453 kts | 144° |
| 2026-05-06 11:49 | 50.25061 | 8.55125 | 31774 ft | 453 kts | 144° |
| 2026-05-06 11:49 | 50.22635 | 8.58255 | 32123 ft | 453 kts | 144° |
| 2026-05-06 11:50 | 50.20204 | 8.61388 | 32510 ft | 451 kts | 144° |
| 2026-05-06 11:50 | 50.17787 | 8.64500 | 32911 ft | 450 kts | 144° |
| 2026-05-06 11:50 | 50.15377 | 8.67601 | 33264 ft | 449 kts | 144° |
| 2026-05-06 11:50 | 50.12965 | 8.70697 | 33598 ft | 449 kts | 144° |
| 2026-05-06 11:51 | 50.10549 | 8.73795 | 33913 ft | 448 kts | 144° |
| 2026-05-06 11:51 | 50.08257 | 8.77113 | 34158 ft | 455 kts | 130° |
| 2026-05-06 11:51 | 50.06736 | 8.81461 | 34560 ft | 461 kts | 115° |
| 2026-05-06 11:51 | 50.05830 | 8.86216 | 34727 ft | 471 kts | 101° |
| 2026-05-06 11:52 | 50.05844 | 8.96534 | 34759 ft | 480 kts | 90° |
| 2026-05-06 11:52 | 50.06132 | 9.06922 | 34765 ft | 479 kts | 91° |
| 2026-05-06 11:53 | 50.06297 | 9.17281 | 34747 ft | 478 kts | 92° |
| 2026-05-06 11:53 | 50.06435 | 9.27615 | 34759 ft | 478 kts | 92° |
| 2026-05-06 11:54 | 50.06577 | 9.37975 | 34771 ft | 478 kts | 92° |
| 2026-05-06 11:54 | 50.06704 | 9.48359 | 34778 ft | 479 kts | 92° |
| 2026-05-06 11:55 | 50.06815 | 9.58700 | 34777 ft | 481 kts | 92° |
| 2026-05-06 11:55 | 50.06924 | 9.69117 | 34764 ft | 481 kts | 93° |
| 2026-05-06 11:56 | 50.06749 | 9.74288 | 34754 ft | 475 kts | 104° |
| 2026-05-06 11:56 | 50.05972 | 9.79222 | 34805 ft | 467 kts | 114° |
| 2026-05-06 11:56 | 50.03060 | 9.88007 | 34776 ft | 456 kts | 128° |
| 2026-05-06 11:57 | 49.99521 | 9.96207 | 34791 ft | 457 kts | 129° |
| 2026-05-06 11:57 | 49.95972 | 10.04427 | 34775 ft | 459 kts | 128° |
| 2026-05-06 11:58 | 49.92439 | 10.12683 | 34777 ft | 459 kts | 128° |
| 2026-05-06 11:58 | 49.88912 | 10.20940 | 34779 ft | 459 kts | 128° |
| 2026-05-06 11:59 | 49.85380 | 10.29185 | 34782 ft | 459 kts | 129° |
| 2026-05-06 11:59 | 49.81842 | 10.37414 | 34785 ft | 459 kts | 128° |
| 2026-05-06 12:00 | 49.78295 | 10.45636 | 34776 ft | 459 kts | 129° |
| 2026-05-06 12:00 | 49.74755 | 10.53815 | 34787 ft | 460 kts | 129° |
| 2026-05-06 12:01 | 49.71185 | 10.62040 | 34793 ft | 461 kts | 129° |
| 2026-05-06 12:01 | 49.67603 | 10.70264 | 34792 ft | 461 kts | 130° |
| 2026-05-06 12:02 | 49.64014 | 10.78479 | 34793 ft | 461 kts | 129° |
| 2026-05-06 12:02 | 49.60441 | 10.86629 | 34782 ft | 462 kts | 130° |
| 2026-05-06 12:03 | 49.56837 | 10.94819 | 34798 ft | 462 kts | 130° |
| 2026-05-06 12:03 | 49.53221 | 11.03023 | 34806 ft | 463 kts | 130° |
| 2026-05-06 12:04 | 49.50024 | 11.11724 | 34809 ft | 470 kts | 122° |
| 2026-05-06 12:04 | 49.47140 | 11.20793 | 34801 ft | 472 kts | 121° |
| 2026-05-06 12:05 | 49.44248 | 11.29838 | 34796 ft | 471 kts | 122° |
| 2026-05-06 12:05 | 49.41320 | 11.38777 | 34808 ft | 471 kts | 122° |
| 2026-05-06 12:06 | 49.38342 | 11.47744 | 34808 ft | 471 kts | 123° |
| 2026-05-06 12:06 | 49.35356 | 11.56695 | 34804 ft | 471 kts | 123° |
| 2026-05-06 12:07 | 49.32368 | 11.65622 | 34779 ft | 470 kts | 123° |
| 2026-05-06 12:07 | 49.29380 | 11.74527 | 34790 ft | 469 kts | 123° |
| 2026-05-06 12:08 | 49.26388 | 11.83410 | 34800 ft | 469 kts | 123° |
| 2026-05-06 12:08 | 49.23411 | 11.92219 | 34803 ft | 469 kts | 123° |
| 2026-05-06 12:09 | 49.20410 | 12.01068 | 34795 ft | 468 kts | 123° |
| 2026-05-06 12:09 | 49.17403 | 12.09905 | 34793 ft | 468 kts | 123° |
| 2026-05-06 12:10 | 49.14385 | 12.18739 | 34801 ft | 468 kts | 124° |
| 2026-05-06 12:10 | 49.11362 | 12.27560 | 34804 ft | 469 kts | 124° |
| 2026-05-06 12:11 | 49.08329 | 12.36382 | 34799 ft | 470 kts | 124° |
| 2026-05-06 12:11 | 49.05279 | 12.45216 | 34773 ft | 471 kts | 124° |
| 2026-05-06 12:12 | 49.02222 | 12.54048 | 34792 ft | 472 kts | 124° |
| 2026-05-06 12:12 | 48.99147 | 12.62899 | 34798 ft | 473 kts | 124° |
| 2026-05-06 12:13 | 48.96059 | 12.71756 | 34807 ft | 474 kts | 124° |
| 2026-05-06 12:13 | 48.92982 | 12.80554 | 34793 ft | 475 kts | 124° |
| 2026-05-06 12:14 | 48.89873 | 12.89411 | 34789 ft | 475 kts | 124° |
| 2026-05-06 12:14 | 48.86753 | 12.98266 | 34800 ft | 474 kts | 124° |
| 2026-05-06 12:15 | 48.83635 | 13.07089 | 34782 ft | 474 kts | 124° |
| 2026-05-06 12:15 | 48.80513 | 13.15890 | 34800 ft | 473 kts | 125° |
| 2026-05-06 12:16 | 48.77385 | 13.24677 | 34778 ft | 473 kts | 125° |
| 2026-05-06 12:16 | 48.74274 | 13.33385 | 34779 ft | 473 kts | 125° |
| 2026-05-06 12:17 | 48.71135 | 13.42138 | 34791 ft | 472 kts | 125° |
| 2026-05-06 12:17 | 48.67988 | 13.50876 | 34792 ft | 473 kts | 125° |
| 2026-05-06 12:18 | 48.65362 | 13.58140 | 34793 ft | 472 kts | 127° |
| 2026-05-06 12:18 | 48.61738 | 13.66315 | 34782 ft | 466 kts | 132° |
| 2026-05-06 12:19 | 48.57930 | 13.74245 | 34798 ft | 467 kts | 133° |
| 2026-05-06 12:19 | 48.54114 | 13.82214 | 34796 ft | 468 kts | 132° |
| 2026-05-06 12:20 | 48.50322 | 13.90209 | 34793 ft | 469 kts | 132° |
| 2026-05-06 12:20 | 48.46544 | 13.98186 | 34775 ft | 469 kts | 132° |
| 2026-05-06 12:21 | 48.42743 | 14.06194 | 34782 ft | 470 kts | 132° |
| 2026-05-06 12:21 | 48.38931 | 14.14193 | 34783 ft | 470 kts | 133° |
| 2026-05-06 12:22 | 48.35110 | 14.22188 | 34776 ft | 471 kts | 133° |
| 2026-05-06 12:22 | 48.31285 | 14.30166 | 34781 ft | 470 kts | 133° |
| 2026-05-06 12:23 | 48.27457 | 14.38129 | 34775 ft | 470 kts | 133° |
| 2026-05-06 12:23 | 48.23643 | 14.46034 | 34779 ft | 471 kts | 133° |
| 2026-05-06 12:24 | 48.19792 | 14.53994 | 34785 ft | 471 kts | 133° |
| 2026-05-06 12:24 | 48.15933 | 14.61945 | 34792 ft | 472 kts | 133° |
| 2026-05-06 12:25 | 48.12057 | 14.69905 | 34780 ft | 472 kts | 133° |
| 2026-05-06 12:25 | 48.08197 | 14.77806 | 34788 ft | 473 kts | 133° |
| 2026-05-06 12:26 | 48.04318 | 14.85760 | 34788 ft | 474 kts | 132° |
| 2026-05-06 12:26 | 48.00581 | 14.93913 | 34802 ft | 476 kts | 130° |
| 2026-05-06 12:27 | 47.97114 | 15.01628 | 34748 ft | 476 kts | 130° |
| 2026-05-06 12:27 | 47.93399 | 15.09802 | 34786 ft | 476 kts | 131° |
| 2026-05-06 12:28 | 47.89667 | 15.17945 | 34788 ft | 475 kts | 131° |
| 2026-05-06 12:28 | 47.85924 | 15.26042 | 34826 ft | 473 kts | 131° |
| 2026-05-06 12:29 | 47.82170 | 15.34130 | 34817 ft | 475 kts | 131° |
| 2026-05-06 12:29 | 47.78429 | 15.42175 | 34814 ft | 477 kts | 131° |
| 2026-05-06 12:30 | 47.74643 | 15.50298 | 34830 ft | 478 kts | 131° |
| 2026-05-06 12:30 | 47.70841 | 15.58435 | 34829 ft | 480 kts | 131° |
| 2026-05-06 12:31 | 47.67025 | 15.66577 | 34843 ft | 481 kts | 131° |
| 2026-05-06 12:31 | 47.63198 | 15.74719 | 34835 ft | 482 kts | 130° |
| 2026-05-06 12:32 | 47.59357 | 15.82868 | 34829 ft | 481 kts | 130° |
| 2026-05-06 12:32 | 47.55514 | 15.90989 | 34841 ft | 482 kts | 130° |
| 2026-05-06 12:33 | 47.51680 | 15.99082 | 34825 ft | 478 kts | 130° |
| 2026-05-06 12:33 | 47.47883 | 16.07062 | 34835 ft | 477 kts | 130° |
| 2026-05-06 12:34 | 47.44050 | 16.15090 | 34838 ft | 478 kts | 130° |
| 2026-05-06 12:34 | 47.40203 | 16.23128 | 34848 ft | 480 kts | 130° |
| 2026-05-06 12:35 | 47.36335 | 16.31183 | 34849 ft | 481 kts | 130° |
| 2026-05-06 12:35 | 47.32448 | 16.39247 | 34854 ft | 483 kts | 130° |
| 2026-05-06 12:36 | 47.28546 | 16.47331 | 34861 ft | 484 kts | 131° |
| 2026-05-06 12:36 | 47.24537 | 16.55173 | 34862 ft | 482 kts | 133° |
| 2026-05-06 12:37 | 47.20391 | 16.62920 | 34853 ft | 481 kts | 133° |
| 2026-05-06 12:37 | 47.16243 | 16.70654 | 34866 ft | 481 kts | 133° |
| 2026-05-06 12:38 | 47.12107 | 16.78398 | 34871 ft | 481 kts | 133° |
| 2026-05-06 12:38 | 47.07975 | 16.86140 | 34875 ft | 481 kts | 133° |
| 2026-05-06 12:39 | 47.03844 | 16.93862 | 34874 ft | 481 kts | 133° |
| 2026-05-06 12:39 | 46.99704 | 17.01577 | 34884 ft | 482 kts | 133° |
| 2026-05-06 12:40 | 46.95584 | 17.09233 | 34888 ft | 481 kts | 133° |
| 2026-05-06 12:40 | 46.91429 | 17.16932 | 34888 ft | 481 kts | 133° |
| 2026-05-06 12:41 | 46.87281 | 17.24596 | 34900 ft | 481 kts | 133° |
| 2026-05-06 12:41 | 46.83124 | 17.32257 | 34911 ft | 480 kts | 133° |
| 2026-05-06 12:42 | 46.78969 | 17.39890 | 34904 ft | 479 kts | 133° |
| 2026-05-06 12:42 | 46.74817 | 17.47499 | 34904 ft | 479 kts | 133° |
| 2026-05-06 12:43 | 46.70687 | 17.55047 | 34908 ft | 479 kts | 133° |
| 2026-05-06 12:43 | 46.66524 | 17.62633 | 34906 ft | 479 kts | 133° |
| 2026-05-06 12:44 | 46.62359 | 17.70201 | 34886 ft | 479 kts | 133° |
| 2026-05-06 12:44 | 46.58182 | 17.77770 | 34901 ft | 479 kts | 133° |
| 2026-05-06 12:45 | 46.54027 | 17.85280 | 34908 ft | 480 kts | 133° |
| 2026-05-06 12:46 | 46.47735 | 17.96614 | 34911 ft | 480 kts | 133° |
| 2026-05-06 12:46 | 46.43534 | 18.04155 | 34899 ft | 480 kts | 133° |
| 2026-05-06 12:47 | 46.39326 | 18.11689 | 34906 ft | 481 kts | 133° |
| 2026-05-06 12:47 | 46.35110 | 18.19215 | 34905 ft | 482 kts | 133° |
| 2026-05-06 12:48 | 46.30900 | 18.26710 | 34898 ft | 483 kts | 133° |
| 2026-05-06 12:48 | 46.26658 | 18.34243 | 34907 ft | 483 kts | 133° |
| 2026-05-06 12:49 | 46.22411 | 18.41764 | 34910 ft | 482 kts | 133° |
| 2026-05-06 12:49 | 46.18170 | 18.49253 | 34915 ft | 482 kts | 133° |
| 2026-05-06 12:50 | 46.13922 | 18.56734 | 34913 ft | 481 kts | 133° |
| 2026-05-06 12:50 | 46.09673 | 18.64195 | 34901 ft | 481 kts | 133° |
| 2026-05-06 12:51 | 46.05420 | 18.71642 | 34911 ft | 481 kts | 133° |
| 2026-05-06 12:51 | 46.01186 | 18.79033 | 34902 ft | 482 kts | 133° |
| 2026-05-06 12:52 | 45.96915 | 18.86465 | 34914 ft | 482 kts | 133° |
| 2026-05-06 12:52 | 45.92618 | 18.93857 | 34897 ft | 481 kts | 136° |
| 2026-05-06 12:53 | 45.87914 | 19.00657 | 34916 ft | 479 kts | 140° |
| 2026-05-06 12:53 | 45.83093 | 19.07286 | 34941 ft | 480 kts | 140° |
| 2026-05-06 12:54 | 45.78498 | 19.14212 | 35105 ft | 481 kts | 133° |
| 2026-05-06 12:54 | 45.74627 | 19.22118 | 35012 ft | 491 kts | 121° |
| 2026-05-06 12:54 | 45.73159 | 19.26500 | 34833 ft | 498 kts | 113° |
| 2026-05-06 12:55 | 45.72065 | 19.31221 | 34703 ft | 502 kts | 105° |
| 2026-05-06 12:55 | 45.71256 | 19.41125 | 34712 ft | 501 kts | 88° |
| 2026-05-06 12:56 | 45.72442 | 19.50885 | 34673 ft | 499 kts | 69° |
| 2026-05-06 12:56 | 45.73803 | 19.55442 | 34541 ft | 498 kts | 59° |
| 2026-05-06 12:56 | 45.75653 | 19.59623 | 34402 ft | 496 kts | 49° |
| 2026-05-06 12:57 | 45.80561 | 19.66349 | 34295 ft | 483 kts | 29° |
| 2026-05-06 12:57 | 45.86529 | 19.70333 | 34273 ft | 466 kts | 9° |
| 2026-05-06 12:58 | 45.92862 | 19.71209 | 34113 ft | 453 kts | 349° |
| 2026-05-06 12:58 | 45.98842 | 19.68980 | 34000 ft | 438 kts | 329° |
| 2026-05-06 12:59 | 46.03694 | 19.64086 | 33976 ft | 424 kts | 309° |
| 2026-05-06 12:59 | 46.05500 | 19.60779 | 33921 ft | 419 kts | 295° |
| 2026-05-06 12:59 | 46.06425 | 19.56812 | 33529 ft | 422 kts | 274° |
| 2026-05-06 12:59 | 46.06130 | 19.52647 | 33723 ft | 422 kts | 252° |
| 2026-05-06 13:00 | 46.04712 | 19.48947 | 34045 ft | 428 kts | 231° |
| 2026-05-06 13:00 | 46.02382 | 19.46265 | 34408 ft | 436 kts | 210° |
| 2026-05-06 13:00 | 45.99452 | 19.44991 | 34786 ft | 447 kts | 189° |
| 2026-05-06 13:00 | 45.96309 | 19.45038 | 34904 ft | 458 kts | 179° |
| 2026-05-06 13:01 | 45.93168 | 19.45692 | 34920 ft | 463 kts | 174° |
| 2026-05-06 13:01 | 45.86862 | 19.47696 | 34906 ft | 462 kts | 171° |
| 2026-05-06 13:02 | 45.80656 | 19.50023 | 34913 ft | 460 kts | 169° |
| 2026-05-06 13:02 | 45.74491 | 19.52511 | 34918 ft | 460 kts | 169° |
| 2026-05-06 13:03 | 45.68339 | 19.55077 | 34900 ft | 461 kts | 169° |
| 2026-05-06 13:03 | 45.65120 | 19.56434 | 34925 ft | 463 kts | 168° |
| 2026-05-06 13:05 | 45.59216 | 19.59080 | 34926 ft | 468 kts | 167° |
| 2026-05-06 13:06 | 45.53023 | 19.62030 | 34924 ft | 470 kts | 166° |
| 2026-05-06 13:06 | 45.46843 | 19.65129 | 34922 ft | 471 kts | 165° |
| 2026-05-06 13:07 | 45.41749 | 19.67901 | 34917 ft | 472 kts | 160° |
| 2026-05-06 13:07 | 45.36054 | 19.72626 | 34921 ft | 478 kts | 147° |
| 2026-05-06 13:08 | 45.30964 | 19.78751 | 34929 ft | 480 kts | 140° |
| 2026-05-06 13:08 | 45.26158 | 19.85370 | 34927 ft | 481 kts | 139° |
| 2026-05-06 13:09 | 45.21389 | 19.92017 | 34923 ft | 480 kts | 139° |
| 2026-05-06 13:09 | 45.16593 | 19.98589 | 34936 ft | 479 kts | 140° |
| 2026-05-06 13:10 | 45.11779 | 20.05103 | 34939 ft | 478 kts | 140° |
| 2026-05-06 13:10 | 45.06962 | 20.11588 | 34936 ft | 477 kts | 140° |
| 2026-05-06 13:11 | 45.02146 | 20.18057 | 34932 ft | 477 kts | 140° |
| 2026-05-06 13:11 | 44.97329 | 20.24514 | 34972 ft | 477 kts | 140° |
| 2026-05-06 13:12 | 44.92539 | 20.30922 | 34959 ft | 478 kts | 140° |
| 2026-05-06 13:12 | 44.87703 | 20.37377 | 34964 ft | 479 kts | 140° |
| 2026-05-06 13:13 | 44.82851 | 20.43836 | 34958 ft | 479 kts | 140° |
| 2026-05-06 13:13 | 44.77999 | 20.50280 | 34971 ft | 480 kts | 140° |
| 2026-05-06 13:14 | 44.73128 | 20.56733 | 34961 ft | 481 kts | 140° |
| 2026-05-06 13:14 | 44.68254 | 20.63176 | 34970 ft | 482 kts | 140° |
| 2026-05-06 13:15 | 44.63361 | 20.69626 | 34959 ft | 482 kts | 140° |
| 2026-05-06 13:15 | 44.58491 | 20.76032 | 34958 ft | 482 kts | 140° |
| 2026-05-06 13:16 | 44.53587 | 20.82466 | 34957 ft | 483 kts | 140° |
| 2026-05-06 13:16 | 44.48675 | 20.88895 | 34958 ft | 483 kts | 140° |
| 2026-05-06 13:17 | 44.43759 | 20.95315 | 34962 ft | 483 kts | 140° |
| 2026-05-06 13:17 | 44.38874 | 21.01678 | 34953 ft | 483 kts | 140° |
| 2026-05-06 13:18 | 44.33955 | 21.08070 | 34957 ft | 482 kts | 140° |
| 2026-05-06 13:18 | 44.29035 | 21.14449 | 34963 ft | 482 kts | 140° |
| 2026-05-06 13:19 | 44.24113 | 21.20814 | 34963 ft | 482 kts | 140° |
| 2026-05-06 13:19 | 44.19190 | 21.27166 | 34964 ft | 482 kts | 140° |
| 2026-05-06 13:20 | 44.14261 | 21.33510 | 34964 ft | 482 kts | 140° |
| 2026-05-06 13:20 | 44.09322 | 21.39852 | 34971 ft | 483 kts | 140° |
| 2026-05-06 13:21 | 44.04408 | 21.46146 | 34970 ft | 483 kts | 140° |
| 2026-05-06 13:21 | 43.99459 | 21.52471 | 34967 ft | 484 kts | 140° |
| 2026-05-06 13:22 | 43.94487 | 21.58810 | 34978 ft | 484 kts | 139° |
| 2026-05-06 13:22 | 43.89519 | 21.65129 | 34982 ft | 485 kts | 139° |
| 2026-05-06 13:23 | 43.84531 | 21.71459 | 34968 ft | 486 kts | 140° |
| 2026-05-06 13:23 | 43.79543 | 21.77772 | 34974 ft | 485 kts | 139° |
| 2026-05-06 13:24 | 43.74587 | 21.84032 | 34983 ft | 486 kts | 139° |
| 2026-05-06 13:24 | 43.69591 | 21.90328 | 34976 ft | 486 kts | 139° |
| 2026-05-06 13:25 | 43.64583 | 21.96622 | 34980 ft | 486 kts | 139° |
| 2026-05-06 13:25 | 43.59574 | 22.02905 | 34968 ft | 486 kts | 140° |
| 2026-05-06 13:26 | 43.54562 | 22.09175 | 34972 ft | 486 kts | 140° |
| 2026-05-06 13:26 | 43.49552 | 22.15429 | 34970 ft | 485 kts | 140° |
| 2026-05-06 13:27 | 43.44541 | 22.21668 | 34975 ft | 485 kts | 140° |
| 2026-05-06 13:27 | 43.39564 | 22.27851 | 34972 ft | 485 kts | 139° |
| 2026-05-06 13:28 | 43.34560 | 22.34055 | 34990 ft | 485 kts | 140° |
| 2026-05-06 13:28 | 43.29546 | 22.40254 | 34984 ft | 485 kts | 140° |
| 2026-05-06 13:29 | 43.24531 | 22.46442 | 34999 ft | 485 kts | 140° |
| 2026-05-06 13:29 | 43.19502 | 22.52632 | 34997 ft | 486 kts | 139° |
| 2026-05-06 13:30 | 43.14471 | 22.58812 | 34995 ft | 486 kts | 139° |
| 2026-05-06 13:30 | 43.09434 | 22.64985 | 35000 ft | 486 kts | 140° |
| 2026-05-06 13:31 | 43.04388 | 22.71154 | 35005 ft | 486 kts | 139° |
| 2026-05-06 13:31 | 42.99333 | 22.77322 | 35000 ft | 487 kts | 139° |
| 2026-05-06 13:32 | 42.94297 | 22.83541 | 35001 ft | 488 kts | 138° |
| 2026-05-06 13:32 | 42.89338 | 22.89800 | 35031 ft | 488 kts | 139° |
| 2026-05-06 13:33 | 42.84204 | 22.95854 | 35060 ft | 488 kts | 142° |
| 2026-05-06 13:33 | 42.78757 | 23.01416 | 34956 ft | 490 kts | 147° |
| 2026-05-06 13:34 | 42.72947 | 23.06252 | 35016 ft | 487 kts | 154° |
| 2026-05-06 13:34 | 42.66839 | 23.10156 | 35094 ft | 484 kts | 161° |
| 2026-05-06 13:35 | 42.60825 | 23.14204 | 35018 ft | 490 kts | 137° |
| 2026-05-06 13:35 | 42.58732 | 23.17768 | 35019 ft | 490 kts | 117° |
| 2026-05-06 13:35 | 42.57405 | 23.21999 | 35039 ft | 488 kts | 108° |
| 2026-05-06 13:36 | 42.55131 | 23.30687 | 35009 ft | 491 kts | 114° |
| 2026-05-06 13:36 | 42.51328 | 23.38344 | 35031 ft | 492 kts | 133° |
| 2026-05-06 13:37 | 42.46379 | 23.44752 | 35037 ft | 492 kts | 139° |
| 2026-05-06 13:37 | 42.41233 | 23.50891 | 35025 ft | 494 kts | 139° |
| 2026-05-06 13:38 | 42.36143 | 23.57167 | 35031 ft | 495 kts | 137° |
| 2026-05-06 13:38 | 42.31086 | 23.63494 | 35033 ft | 496 kts | 137° |
| 2026-05-06 13:39 | 42.25981 | 23.69778 | 35033 ft | 496 kts | 138° |
| 2026-05-06 13:39 | 42.20832 | 23.76008 | 35033 ft | 497 kts | 138° |
| 2026-05-06 13:40 | 42.15714 | 23.82198 | 35025 ft | 497 kts | 138° |
| 2026-05-06 13:40 | 42.10567 | 23.88427 | 35022 ft | 497 kts | 138° |
| 2026-05-06 13:41 | 42.05419 | 23.94648 | 35024 ft | 496 kts | 138° |
| 2026-05-06 13:41 | 42.00272 | 24.00850 | 35032 ft | 496 kts | 138° |
| 2026-05-06 13:42 | 41.95123 | 24.07043 | 35039 ft | 496 kts | 138° |
| 2026-05-06 13:42 | 41.90007 | 24.13188 | 35030 ft | 497 kts | 138° |
| 2026-05-06 13:43 | 41.84846 | 24.19375 | 35025 ft | 496 kts | 138° |
| 2026-05-06 13:43 | 41.79692 | 24.25540 | 35037 ft | 496 kts | 138° |
| 2026-05-06 13:44 | 41.74536 | 24.31695 | 35019 ft | 495 kts | 138° |
| 2026-05-06 13:44 | 41.69386 | 24.37827 | 35026 ft | 494 kts | 138° |
| 2026-05-06 13:45 | 41.64278 | 24.43906 | 35042 ft | 495 kts | 138° |
| 2026-05-06 13:45 | 41.56520 | 24.53088 | 35046 ft | 498 kts | 138° |
| 2026-05-06 13:46 | 41.51329 | 24.59224 | 35038 ft | 498 kts | 138° |
| 2026-05-06 13:46 | 41.46126 | 24.65360 | 35046 ft | 499 kts | 138° |
| 2026-05-06 13:47 | 41.40932 | 24.71524 | 35044 ft | 500 kts | 136° |
| 2026-05-06 13:47 | 41.35928 | 24.77984 | 35049 ft | 501 kts | 134° |
| 2026-05-06 13:48 | 41.30988 | 24.84541 | 35041 ft | 502 kts | 134° |
| 2026-05-06 13:48 | 41.26030 | 24.91063 | 35058 ft | 502 kts | 135° |
| 2026-05-06 13:49 | 41.21068 | 24.97521 | 35035 ft | 502 kts | 135° |
| 2026-05-06 13:49 | 41.16068 | 25.03997 | 35055 ft | 502 kts | 135° |
| 2026-05-06 13:50 | 41.11058 | 25.10472 | 35043 ft | 502 kts | 135° |
| 2026-05-06 13:50 | 41.06055 | 25.16927 | 35053 ft | 502 kts | 135° |
| 2026-05-06 13:51 | 41.01035 | 25.23391 | 35052 ft | 502 kts | 135° |
| 2026-05-06 13:51 | 40.96017 | 25.29837 | 35054 ft | 502 kts | 135° |
| 2026-05-06 13:52 | 40.90997 | 25.36271 | 35053 ft | 503 kts | 135° |
| 2026-05-06 13:52 | 40.85996 | 25.42668 | 35053 ft | 503 kts | 135° |
| 2026-05-06 13:53 | 40.80958 | 25.49097 | 35055 ft | 504 kts | 135° |
| 2026-05-06 13:53 | 40.75907 | 25.55528 | 35056 ft | 504 kts | 135° |
| 2026-05-06 13:54 | 40.70853 | 25.61950 | 35059 ft | 505 kts | 135° |
| 2026-05-06 13:54 | 40.65786 | 25.68373 | 35059 ft | 506 kts | 135° |
| 2026-05-06 13:55 | 40.60709 | 25.74796 | 35062 ft | 507 kts | 135° |
| 2026-05-06 13:55 | 40.56471 | 25.80147 | 35062 ft | 508 kts | 135° |
| 2026-05-06 13:56 | 40.51365 | 25.86581 | 35067 ft | 509 kts | 135° |
| 2026-05-06 13:56 | 40.46498 | 25.93313 | 35074 ft | 508 kts | 129° |
| 2026-05-06 13:57 | 40.41872 | 26.00339 | 35077 ft | 509 kts | 129° |
| 2026-05-06 13:57 | 40.37235 | 26.07365 | 35062 ft | 510 kts | 129° |
| 2026-05-06 13:58 | 40.32558 | 26.14348 | 35067 ft | 510 kts | 129° |
| 2026-05-06 13:58 | 40.27860 | 26.21318 | 35070 ft | 510 kts | 129° |
| 2026-05-06 13:59 | 40.23187 | 26.28240 | 35085 ft | 510 kts | 129° |
| 2026-05-06 13:59 | 40.18480 | 26.35202 | 35079 ft | 511 kts | 129° |
| 2026-05-06 14:00 | 40.13764 | 26.42160 | 35075 ft | 511 kts | 130° |
| 2026-05-06 14:00 | 40.08805 | 26.48828 | 35079 ft | 512 kts | 134° |
| 2026-05-06 14:01 | 40.03670 | 26.55275 | 35068 ft | 512 kts | 135° |
| 2026-05-06 14:01 | 39.98546 | 26.61741 | 35078 ft | 512 kts | 134° |
| 2026-05-06 14:02 | 39.93461 | 26.68227 | 35070 ft | 511 kts | 134° |
| 2026-05-06 14:02 | 39.88388 | 26.74702 | 35075 ft | 510 kts | 134° |
| 2026-05-06 14:03 | 39.83347 | 26.81118 | 35071 ft | 509 kts | 134° |
| 2026-05-06 14:03 | 39.78279 | 26.87550 | 35089 ft | 509 kts | 134° |
| 2026-05-06 14:04 | 39.73173 | 26.93940 | 35072 ft | 509 kts | 136° |
| 2026-05-06 14:04 | 39.68017 | 27.00247 | 35086 ft | 508 kts | 136° |
| 2026-05-06 14:05 | 39.62860 | 27.06549 | 35066 ft | 508 kts | 136° |
| 2026-05-06 14:05 | 39.57724 | 27.12839 | 35076 ft | 508 kts | 136° |
| 2026-05-06 14:06 | 39.52619 | 27.19082 | 35094 ft | 508 kts | 136° |
| 2026-05-06 14:06 | 39.47663 | 27.25602 | 35061 ft | 508 kts | 128° |
| 2026-05-06 14:07 | 39.43255 | 27.32741 | 35065 ft | 508 kts | 126° |
| 2026-05-06 14:07 | 39.38814 | 27.39866 | 35056 ft | 508 kts | 128° |
| 2026-05-06 14:08 | 39.34300 | 27.46900 | 35061 ft | 508 kts | 128° |
| 2026-05-06 14:08 | 39.29779 | 27.53920 | 35066 ft | 507 kts | 128° |
| 2026-05-06 14:09 | 39.25297 | 27.60879 | 35048 ft | 506 kts | 128° |
| 2026-05-06 14:09 | 39.20788 | 27.67870 | 35048 ft | 505 kts | 128° |
| 2026-05-06 14:10 | 39.16300 | 27.74815 | 35063 ft | 503 kts | 128° |
| 2026-05-06 14:10 | 39.11815 | 27.81737 | 35048 ft | 503 kts | 128° |
| 2026-05-06 14:11 | 39.07319 | 27.88661 | 35064 ft | 504 kts | 128° |
| 2026-05-06 14:11 | 39.02810 | 27.95580 | 35062 ft | 505 kts | 128° |
| 2026-05-06 14:12 | 38.98318 | 28.02460 | 35055 ft | 506 kts | 128° |
| 2026-05-06 14:12 | 38.93790 | 28.09385 | 35083 ft | 506 kts | 129° |
| 2026-05-06 14:13 | 38.89256 | 28.16303 | 35070 ft | 506 kts | 129° |
| 2026-05-06 14:13 | 38.84724 | 28.23204 | 35070 ft | 506 kts | 129° |
| 2026-05-06 14:14 | 38.80177 | 28.30112 | 35046 ft | 506 kts | 129° |
| 2026-05-06 14:14 | 38.75633 | 28.37000 | 35083 ft | 506 kts | 129° |
| 2026-05-06 14:15 | 38.71080 | 28.43888 | 35071 ft | 506 kts | 129° |
| 2026-05-06 14:15 | 38.66553 | 28.50723 | 35069 ft | 506 kts | 129° |
| 2026-05-06 14:16 | 38.61998 | 28.57586 | 35067 ft | 505 kts | 129° |
| 2026-05-06 14:16 | 38.57444 | 28.64425 | 35066 ft | 505 kts | 130° |
| 2026-05-06 14:17 | 38.52693 | 28.71028 | 35076 ft | 504 kts | 133° |
| 2026-05-06 14:17 | 38.47855 | 28.77492 | 35074 ft | 503 kts | 133° |
| 2026-05-06 14:18 | 38.43039 | 28.83977 | 35073 ft | 503 kts | 133° |
| 2026-05-06 14:18 | 38.38249 | 28.90478 | 35066 ft | 503 kts | 133° |
| 2026-05-06 14:19 | 38.33455 | 28.96987 | 35093 ft | 503 kts | 133° |
| 2026-05-06 14:19 | 38.28658 | 29.03483 | 35080 ft | 503 kts | 133° |
| 2026-05-06 14:20 | 38.23858 | 29.09966 | 35075 ft | 503 kts | 133° |
| 2026-05-06 14:20 | 38.19050 | 29.16446 | 35076 ft | 503 kts | 133° |
| 2026-05-06 14:21 | 38.14250 | 29.22853 | 35075 ft | 503 kts | 134° |
| 2026-05-06 14:21 | 38.11749 | 29.25981 | 34959 ft | 507 kts | 136° |
| 2026-05-06 14:21 | 38.09199 | 29.29071 | 34713 ft | 506 kts | 136° |
| 2026-05-06 14:22 | 38.06641 | 29.32139 | 34479 ft | 504 kts | 136° |
| 2026-05-06 14:22 | 38.04095 | 29.35196 | 34249 ft | 504 kts | 136° |
| 2026-05-06 14:22 | 38.01551 | 29.38266 | 34006 ft | 504 kts | 136° |
| 2026-05-06 14:22 | 37.99019 | 29.41339 | 33736 ft | 504 kts | 136° |
| 2026-05-06 14:23 | 37.96493 | 29.44416 | 33330 ft | 502 kts | 136° |
| 2026-05-06 14:23 | 37.93975 | 29.47488 | 32640 ft | 500 kts | 136° |
| 2026-05-06 14:23 | 37.91509 | 29.50495 | 31971 ft | 499 kts | 136° |
| 2026-05-06 14:23 | 37.89012 | 29.53540 | 31277 ft | 498 kts | 136° |
| 2026-05-06 14:24 | 37.86513 | 29.56584 | 30574 ft | 498 kts | 136° |
| 2026-05-06 14:24 | 37.84014 | 29.59622 | 29779 ft | 498 kts | 136° |
| 2026-05-06 14:24 | 37.81518 | 29.62653 | 28917 ft | 497 kts | 136° |
| 2026-05-06 14:24 | 37.79027 | 29.65675 | 28103 ft | 495 kts | 135° |
| 2026-05-06 14:25 | 37.76537 | 29.68692 | 27255 ft | 495 kts | 135° |
| 2026-05-06 14:25 | 37.74051 | 29.71700 | 26392 ft | 493 kts | 135° |
| 2026-05-06 14:25 | 37.71565 | 29.74707 | 25519 ft | 497 kts | 135° |
| 2026-05-06 14:25 | 37.69039 | 29.77759 | 24877 ft | 506 kts | 135° |
| 2026-05-06 14:26 | 37.66485 | 29.80842 | 24188 ft | 506 kts | 135° |
| 2026-05-06 14:26 | 37.63959 | 29.83886 | 23504 ft | 498 kts | 135° |
| 2026-05-06 14:26 | 37.61475 | 29.86878 | 22755 ft | 490 kts | 135° |
| 2026-05-06 14:26 | 37.59024 | 29.89826 | 22071 ft | 482 kts | 135° |
| 2026-05-06 14:27 | 37.56618 | 29.92719 | 21428 ft | 474 kts | 136° |
| 2026-05-06 14:27 | 37.54277 | 29.95530 | 20794 ft | 466 kts | 136° |
| 2026-05-06 14:27 | 37.51946 | 29.98328 | 20159 ft | 460 kts | 136° |
| 2026-05-06 14:27 | 37.49642 | 30.01090 | 19555 ft | 454 kts | 136° |
| 2026-05-06 14:28 | 37.47368 | 30.03814 | 18951 ft | 450 kts | 136° |
| 2026-05-06 14:28 | 37.45106 | 30.06522 | 18317 ft | 447 kts | 136° |
| 2026-05-06 14:28 | 37.42858 | 30.09210 | 17627 ft | 445 kts | 136° |
| 2026-05-06 14:28 | 37.40597 | 30.11912 | 17236 ft | 449 kts | 136° |
| 2026-05-06 14:29 | 37.38342 | 30.14603 | 17105 ft | 440 kts | 136° |
| 2026-05-06 14:29 | 37.36169 | 30.17195 | 17064 ft | 421 kts | 136° |
| 2026-05-06 14:29 | 37.34090 | 30.19671 | 17057 ft | 403 kts | 136° |
| 2026-05-06 14:29 | 37.32093 | 30.22049 | 17056 ft | 387 kts | 136° |
| 2026-05-06 14:30 | 37.30176 | 30.24331 | 17047 ft | 371 kts | 136° |
| 2026-05-06 14:30 | 37.28339 | 30.26513 | 17057 ft | 356 kts | 136° |
| 2026-05-06 14:30 | 37.26599 | 30.28581 | 17037 ft | 342 kts | 136° |
| 2026-05-06 14:30 | 37.24904 | 30.30595 | 17049 ft | 329 kts | 136° |
| 2026-05-06 14:31 | 37.23266 | 30.32539 | 17034 ft | 317 kts | 136° |
| 2026-05-06 14:31 | 37.21689 | 30.34410 | 16970 ft | 308 kts | 136° |
| 2026-05-06 14:31 | 37.20138 | 30.36249 | 16701 ft | 306 kts | 136° |
| 2026-05-06 14:31 | 37.18582 | 30.38093 | 16321 ft | 309 kts | 136° |
| 2026-05-06 14:32 | 37.17007 | 30.39958 | 15902 ft | 314 kts | 136° |
| 2026-05-06 14:32 | 37.15404 | 30.41857 | 15452 ft | 320 kts | 136° |
| 2026-05-06 14:32 | 37.13768 | 30.43792 | 14890 ft | 327 kts | 136° |
| 2026-05-06 14:32 | 37.12069 | 30.45800 | 14012 ft | 346 kts | 136° |
| 2026-05-06 14:33 | 37.10289 | 30.47929 | 13262 ft | 357 kts | 132° |
| 2026-05-06 14:33 | 37.08974 | 30.50499 | 13064 ft | 345 kts | 109° |
| 2026-05-06 14:33 | 37.08433 | 30.53343 | 12975 ft | 330 kts | 94° |
| 2026-05-06 14:33 | 37.08172 | 30.56148 | 12887 ft | 319 kts | 93° |
| 2026-05-06 14:34 | 37.08024 | 30.58865 | 12799 ft | 307 kts | 81° |
| 2026-05-06 14:34 | 37.08624 | 30.61322 | 12638 ft | 288 kts | 55° |
| 2026-05-06 14:34 | 37.09872 | 30.63146 | 12521 ft | 266 kts | 34° |
| 2026-05-06 14:34 | 37.11381 | 30.64353 | 12285 ft | 253 kts | 20° |
| 2026-05-06 14:35 | 37.13026 | 30.64949 | 11898 ft | 247 kts | 6° |
| 2026-05-06 14:35 | 37.14728 | 30.65202 | 11491 ft | 246 kts | 3° |
| 2026-05-06 14:35 | 37.16433 | 30.65414 | 11117 ft | 245 kts | 3° |
| 2026-05-06 14:35 | 37.18125 | 30.65631 | 10737 ft | 244 kts | 4° |
| 2026-05-06 14:36 | 37.19802 | 30.65932 | 10325 ft | 245 kts | 15° |
| 2026-05-06 14:36 | 37.21288 | 30.67011 | 9959 ft | 248 kts | 33° |
| 2026-05-06 14:36 | 37.22675 | 30.68275 | 9578 ft | 245 kts | 32° |
| 2026-05-06 14:36 | 37.24061 | 30.69532 | 9160 ft | 246 kts | 35° |
| 2026-05-06 14:37 | 37.25163 | 30.71171 | 8732 ft | 251 kts | 61° |
| 2026-05-06 14:37 | 37.25863 | 30.73157 | 8531 ft | 243 kts | 62° |
| 2026-05-06 14:37 | 37.26530 | 30.75046 | 8424 ft | 231 kts | 62° |
| 2026-05-06 14:37 | 37.27169 | 30.76839 | 8165 ft | 226 kts | 62° |
| 2026-05-06 14:38 | 37.27804 | 30.78648 | 7809 ft | 226 kts | 67° |
| 2026-05-06 14:38 | 37.27921 | 30.80617 | 7437 ft | 234 kts | 106° |
| 2026-05-06 14:38 | 37.26996 | 30.82249 | 7111 ft | 234 kts | 145° |
| 2026-05-06 14:38 | 37.25465 | 30.82916 | 6736 ft | 234 kts | 176° |
| 2026-05-06 14:39 | 37.23850 | 30.82991 | 6443 ft | 231 kts | 181° |
| 2026-05-06 14:39 | 37.22239 | 30.82965 | 6031 ft | 233 kts | 182° |
| 2026-05-06 14:39 | 37.20638 | 30.82937 | 5843 ft | 224 kts | 181° |
| 2026-05-06 14:39 | 37.19133 | 30.82924 | 5722 ft | 208 kts | 181° |
| 2026-05-06 14:40 | 37.17709 | 30.82922 | 5502 ft | 199 kts | 180° |
| 2026-05-06 14:40 | 37.16331 | 30.82897 | 5135 ft | 198 kts | 185° |
| 2026-05-06 14:40 | 37.14974 | 30.82721 | 4838 ft | 195 kts | 186° |
| 2026-05-06 14:40 | 37.13633 | 30.82526 | 4491 ft | 193 kts | 186° |
| 2026-05-06 14:41 | 37.12330 | 30.82341 | 4199 ft | 189 kts | 186° |
| 2026-05-06 14:41 | 37.11013 | 30.82156 | 3883 ft | 187 kts | 185° |
| 2026-05-06 14:41 | 37.09753 | 30.81984 | 3628 ft | 182 kts | 184° |
| 2026-05-06 14:41 | 37.08505 | 30.81815 | 3531 ft | 182 kts | 184° |
| 2026-05-06 14:42 | 37.07226 | 30.81634 | 3264 ft | 188 kts | 184° |
| 2026-05-06 14:42 | 37.05947 | 30.81459 | 3005 ft | 182 kts | 183° |
| 2026-05-06 14:42 | 37.04733 | 30.81294 | 2767 ft | 169 kts | 184° |
| 2026-05-06 14:42 | 37.03601 | 30.81139 | 2559 ft | 158 kts | 183° |
| 2026-05-06 14:43 | 37.02517 | 30.80991 | 2350 ft | 154 kts | 184° |
| 2026-05-06 14:43 | 37.01812 | 30.80894 | 2200 ft | 147 kts | 184° |
| 2026-05-06 14:43 | 37.00811 | 30.80756 | 2017 ft | 146 kts | 183° |
| 2026-05-06 14:43 | 36.99813 | 30.80619 | 1830 ft | 143 kts | 183° |
| 2026-05-06 14:44 | 36.98831 | 30.80484 | 1655 ft | 138 kts | 184° |
| 2026-05-06 14:44 | 36.97893 | 30.80354 | 1456 ft | 132 kts | 184° |
| 2026-05-06 14:44 | 36.96974 | 30.80228 | 1261 ft | 135 kts | 184° |
| 2026-05-06 14:45 | 36.95136 | 30.79975 | 924 ft | 132 kts | 185° |
| 2026-05-06 14:45 | 36.94212 | 30.79852 | 733 ft | 135 kts | 184° |
| 2026-05-06 14:45 | 36.93297 | 30.79748 | 648 ft | 126 kts | 182° |
| 2026-05-06 14:45 | 36.92439 | 30.79633 | 417 ft | 123 kts | 187° |
| 2026-05-06 14:46 | 36.91578 | 30.79478 | 242 ft | 125 kts | 182° |
| 2026-05-06 14:46 | 36.90756 | 30.79368 | 196 ft | 109 kts | 182° |
| 2026-05-06 14:46 | 36.90200 | 30.79297 | 201 ft | 49 kts | 187° |
| 2026-05-06 14:46 | 36.90068 | 30.79270 | 191 ft | 1 kts | 205° |
| 2026-05-06 14:47 | 36.90008 | 30.79267 | 188 ft | 18 kts | 189° |
| 2026-05-06 14:47 | 36.89868 | 30.79254 | 200 ft | 20 kts | 191° |
| 2026-05-06 14:47 | 36.89731 | 30.79237 | 190 ft | 20 kts | 190° |
| 2026-05-06 14:47 | 36.89597 | 30.79235 | 195 ft | 20 kts | 163° |
| 2026-05-06 14:48 | 36.89484 | 30.79290 | 203 ft | 10 kts | 156° |
| 2026-05-06 14:48 | 36.89417 | 30.79329 | 191 ft | 11 kts | 149° |
| 2026-05-06 14:48 | 36.89351 | 30.79361 | 197 ft | 4 kts | 156° |
| 2026-05-06 14:48 | 36.89329 | 30.79384 | 191 ft | 3 kts | 119° |
| 2026-05-06 14:49 | 36.89340 | 30.79399 | 199 ft | 3 kts | 2° |
| 2026-05-06 14:49 | 36.89366 | 30.79400 | 193 ft | 4 kts | 360° |
| 2026-05-06 14:49 | 36.89406 | 30.79405 | 191 ft | 7 kts | 5° |
| 2026-05-06 14:49 | 36.89472 | 30.79413 | 198 ft | 11 kts | 4° |
| 2026-05-06 14:50 | 36.89554 | 30.79421 | 200 ft | 12 kts | 8° |
| 2026-05-06 14:50 | 36.89589 | 30.79428 | 197 ft | 0 kts | 2° |
| 2026-05-06 14:50 | 36.89600 | 30.79430 | 191 ft | 4 kts | 10° |
| 2026-05-06 14:50 | 36.89648 | 30.79451 | 194 ft | 0 kts | 39° |
| 2026-05-06 14:51 | 36.89655 | 30.79468 | 202 ft | 5 kts | 66° |
| 2026-05-06 14:51 | 36.89683 | 30.79520 | 191 ft | 9 kts | 37° |
| 2026-05-06 14:51 | 36.89746 | 30.79538 | 197 ft | 9 kts | 0° |
| 2026-05-06 14:51 | 36.89778 | 30.79543 | 191 ft | 0 kts | 9° |
| 2026-05-06 14:52 | 36.89782 | 30.79544 | 195 ft | 1 kts | 18° |
| 2026-05-06 14:52 | 36.89800 | 30.79556 | 195 ft | 5 kts | 33° |
| 2026-05-06 14:52 | 36.89831 | 30.79602 | 203 ft | 9 kts | 65° |
| 2026-05-06 14:52 | 36.89837 | 30.79679 | 191 ft | 9 kts | 94° |
| 2026-05-06 14:53 | 36.89830 | 30.79755 | 196 ft | 9 kts | 95° |
| 2026-05-06 14:53 | 36.89829 | 30.79760 | 195 ft | 0 kts | 95° |
| 2026-05-06 14:53 | 36.89829 | 30.79761 | 195 ft | 1 kts | 95° |
| 2026-05-06 14:53 | 36.89825 | 30.79782 | 196 ft | 5 kts | 118° |
| 2026-05-06 14:54 | 36.89805 | 30.79799 | 194 ft | 0 kts | 162° |
| 2026-05-06 14:54 | 36.89803 | 30.79798 | 193 ft | 1 kts | 178° |
| 2026-05-06 14:54 | 36.89795 | 30.79798 | 193 ft | 1 kts | 179° |
| 2026-05-06 14:54 | 36.89791 | 30.79798 | 195 ft | 0 kts | 180° |